createdAt,value
2017-06-22T00:01:57.895Z,20.30
2017-06-22T00:04:26.274Z,20.30
2017-06-22T00:06:54.709Z,20.30
2017-06-22T00:09:23.099Z,20.20
2017-06-22T00:11:51.503Z,20.30
2017-06-22T00:14:19.907Z,20.30
2017-06-22T00:16:48.306Z,20.30
2017-06-22T00:19:16.721Z,20.30
2017-06-22T00:21:45.109Z,20.40
2017-06-22T00:24:14.280Z,20.40
2017-06-22T00:26:42.683Z,20.40
2017-06-22T00:29:11.838Z,20.40
2017-06-22T00:31:40.252Z,20.40
2017-06-22T00:34:08.641Z,20.50
2017-06-22T00:36:37.034Z,20.50
2017-06-22T00:39:04.749Z,20.50
2017-06-22T00:41:33.143Z,20.60
2017-06-22T00:44:01.558Z,20.70
2017-06-22T00:46:29.949Z,20.70
2017-06-22T00:48:58.337Z,20.70
2017-06-22T00:51:26.741Z,20.70
2017-06-22T00:53:55.129Z,20.70
2017-06-22T00:56:24.315Z,20.70
2017-06-22T00:58:52.707Z,20.70
2017-06-22T01:01:21.658Z,20.70
2017-06-22T01:03:50.055Z,20.60
2017-06-22T01:06:18.441Z,20.70
2017-06-22T01:08:46.862Z,20.70
2017-06-22T01:11:15.247Z,20.70
2017-06-22T01:13:43.642Z,20.70
2017-06-22T01:16:12.046Z,20.70
2017-06-22T01:18:40.432Z,20.70
2017-06-22T01:21:08.862Z,20.70
2017-06-22T01:23:37.242Z,20.70
2017-06-22T01:26:05.645Z,20.70
2017-06-22T01:28:34.046Z,20.70
2017-06-22T01:31:02.435Z,20.80
2017-06-22T01:33:30.857Z,20.70
2017-06-22T01:35:59.274Z,20.80
2017-06-22T01:38:27.663Z,20.90
2017-06-22T01:40:56.053Z,20.90
2017-06-22T01:43:24.686Z,20.90
2017-06-22T01:45:53.077Z,20.90
2017-06-22T01:48:21.121Z,20.90
2017-06-22T01:50:49.181Z,20.90
2017-06-22T01:53:17.240Z,20.90
2017-06-22T01:55:46.406Z,21.00
2017-06-22T01:58:14.813Z,21.00
2017-06-22T02:00:43.969Z,21.00
2017-06-22T02:03:12.349Z,21.00
2017-06-22T02:05:40.745Z,21.00
2017-06-22T02:08:09.142Z,21.00
2017-06-22T02:10:38.317Z,20.90
2017-06-22T02:13:06.706Z,20.90
2017-06-22T02:15:35.090Z,20.90
2017-06-22T02:18:04.263Z,20.90
2017-06-22T02:20:32.670Z,20.80
2017-06-22T02:23:01.867Z,20.70
2017-06-22T02:25:31.009Z,20.80
2017-06-22T02:27:59.426Z,20.70
2017-06-22T02:30:27.817Z,20.80
2017-06-22T02:32:56.969Z,20.70
2017-06-22T02:35:25.387Z,20.70
2017-06-22T02:37:54.569Z,20.70
2017-06-22T02:40:22.982Z,20.70
2017-06-22T02:42:51.378Z,20.60
2017-06-22T02:45:19.770Z,20.60
2017-06-22T02:47:48.209Z,20.60
2017-06-22T02:50:16.609Z,20.50
2017-06-22T02:52:44.998Z,20.40
2017-06-22T02:55:13.433Z,20.40
2017-06-22T02:57:42.602Z,20.40
2017-06-22T03:00:11.007Z,20.40
2017-06-22T03:02:39.399Z,20.40
2017-06-22T03:05:07.801Z,20.40
2017-06-22T03:07:56.227Z,20.40
2017-06-22T03:10:24.606Z,20.40
2017-06-22T03:12:53.010Z,20.30
2017-06-22T03:15:21.400Z,20.40
2017-06-22T03:17:49.790Z,20.50
2017-06-22T03:20:18.192Z,20.50
2017-06-22T03:22:46.583Z,20.50
2017-06-22T03:25:15.762Z,20.50
2017-06-22T03:27:44.181Z,20.50
2017-06-22T03:30:12.585Z,20.50
2017-06-22T03:32:40.994Z,20.60
2017-06-22T03:35:09.387Z,20.60
2017-06-22T03:37:37.797Z,20.70
2017-06-22T03:40:06.205Z,20.70
2017-06-22T03:42:34.595Z,20.90
2017-06-22T03:45:03.001Z,21.00
2017-06-22T03:47:31.388Z,21.10
2017-06-22T03:49:59.798Z,21.30
2017-06-22T03:52:28.201Z,21.50
2017-06-22T03:54:56.601Z,21.70
2017-06-22T03:57:25.006Z,21.90
2017-06-22T03:59:53.082Z,22.00
2017-06-22T04:02:22.270Z,22.30
2017-06-22T04:04:50.656Z,22.30
2017-06-22T04:07:19.046Z,22.40
2017-06-22T04:09:47.461Z,22.60
2017-06-22T04:12:15.835Z,22.70
2017-06-22T04:14:44.254Z,22.90
2017-06-22T04:17:12.646Z,23.00
2017-06-22T04:19:41.840Z,23.20
2017-06-22T04:22:10.255Z,23.20
2017-06-22T04:24:38.682Z,23.30
2017-06-22T04:27:07.083Z,23.40
2017-06-22T04:29:35.461Z,23.50
2017-06-22T04:32:03.871Z,23.60
2017-06-22T04:34:32.290Z,23.70
2017-06-22T04:37:01.106Z,23.90
2017-06-22T04:39:29.538Z,23.90
2017-06-22T04:41:57.941Z,23.90
2017-06-22T04:44:27.107Z,24.10
2017-06-22T04:46:55.515Z,24.10
2017-06-22T04:49:24.669Z,24.30
2017-06-22T04:51:53.103Z,24.30
2017-06-22T04:54:22.261Z,24.70
2017-06-22T04:56:50.697Z,24.70
2017-06-22T04:59:19.110Z,24.80
2017-06-22T05:01:47.490Z,24.90
2017-06-22T05:04:15.893Z,25.00
2017-06-22T05:06:44.281Z,25.20
2017-06-22T05:09:12.684Z,25.30
2017-06-22T05:11:41.089Z,25.40
2017-06-22T05:14:09.488Z,25.40
2017-06-22T05:16:37.917Z,25.60
2017-06-22T05:19:06.346Z,25.70
2017-06-22T05:21:34.752Z,25.70
2017-06-22T05:24:03.996Z,25.80
2017-06-22T05:26:32.403Z,25.80
2017-06-22T05:29:00.817Z,25.90
2017-06-22T05:31:29.976Z,26.20
2017-06-22T05:33:58.376Z,26.20
2017-06-22T05:36:26.780Z,26.30
2017-06-22T05:38:55.014Z,26.40
2017-06-22T05:41:23.424Z,26.60
2017-06-22T05:43:51.844Z,26.70
2017-06-22T05:46:20.247Z,26.80
2017-06-22T05:48:48.653Z,27.00
2017-06-22T05:51:17.836Z,27.20
2017-06-22T05:53:46.043Z,27.20
2017-06-22T05:56:14.477Z,27.30
2017-06-22T05:58:42.870Z,27.40
2017-06-22T06:01:12.055Z,27.50
2017-06-22T06:03:40.439Z,27.50
2017-06-22T06:06:08.833Z,27.60
2017-06-22T06:08:38.013Z,27.80
2017-06-22T06:11:06.404Z,27.80
2017-06-22T06:13:35.581Z,28.10
2017-06-22T06:16:03.985Z,28.00
2017-06-22T06:18:33.214Z,28.10
2017-06-22T06:21:01.625Z,28.10
2017-06-22T06:23:30.022Z,28.00
2017-06-22T06:25:58.433Z,28.00
2017-06-22T06:28:26.854Z,28.00
2017-06-22T06:30:55.242Z,28.10
2017-06-22T06:33:23.654Z,28.10
2017-06-22T06:35:52.816Z,28.50
2017-06-22T06:38:21.048Z,28.50
2017-06-22T06:40:49.431Z,28.70
2017-06-22T06:43:17.817Z,29.00
2017-06-22T06:45:46.238Z,29.10
2017-06-22T06:48:14.626Z,29.10
2017-06-22T06:50:43.829Z,29.40
2017-06-22T06:53:12.980Z,29.70
2017-06-22T06:55:41.380Z,29.60
2017-06-22T06:58:09.783Z,29.90
2017-06-22T07:00:38.945Z,30.20
2017-06-22T07:03:07.358Z,30.20
2017-06-22T07:05:35.756Z,30.40
2017-06-22T07:08:04.154Z,30.20
2017-06-22T07:10:32.568Z,30.10
2017-06-22T07:13:00.991Z,30.00
2017-06-22T07:15:29.415Z,29.90
2017-06-22T07:17:57.822Z,29.80
2017-06-22T07:20:26.974Z,30.10
2017-06-22T07:22:55.382Z,30.10
2017-06-22T07:25:23.793Z,30.20
2017-06-22T07:27:52.206Z,30.30
2017-06-22T07:30:20.603Z,30.30
2017-06-22T07:32:48.997Z,30.40
2017-06-22T07:35:17.386Z,30.40
2017-06-22T07:37:46.541Z,30.80
2017-06-22T07:40:14.960Z,30.70
2017-06-22T07:42:43.366Z,30.90
2017-06-22T07:45:11.756Z,31.00
2017-06-22T07:47:40.160Z,31.10
2017-06-22T07:50:08.550Z,31.20
2017-06-22T07:52:36.955Z,31.30
2017-06-22T07:55:06.123Z,31.50
2017-06-22T07:57:34.513Z,31.50
2017-06-22T08:00:02.916Z,31.70
2017-06-22T08:02:32.089Z,31.80
2017-06-22T08:05:01.287Z,31.70
2017-06-22T08:07:30.440Z,31.70
2017-06-22T08:09:58.858Z,31.70
2017-06-22T08:12:28.061Z,32.30
2017-06-22T08:14:57.237Z,32.30
2017-06-22T08:17:25.649Z,32.30
2017-06-22T08:19:54.817Z,32.00
2017-06-22T08:22:23.230Z,32.00
2017-06-22T08:24:51.637Z,32.20
2017-06-22T08:27:20.043Z,32.30
2017-06-22T08:29:48.467Z,32.40
2017-06-22T08:32:16.865Z,32.60
2017-06-22T08:34:45.271Z,32.70
2017-06-22T08:37:13.689Z,32.80
2017-06-22T08:39:42.847Z,32.80
2017-06-22T08:42:11.264Z,32.70
2017-06-22T08:44:40.419Z,32.80
2017-06-22T08:47:08.796Z,32.80
2017-06-22T08:49:37.216Z,32.80
2017-06-22T08:52:06.369Z,33.10
2017-06-22T08:54:34.797Z,33.10
2017-06-22T08:57:03.962Z,33.70
2017-06-22T08:59:32.361Z,33.60
2017-06-22T09:02:00.765Z,34.00
2017-06-22T09:04:29.140Z,33.60
2017-06-22T09:06:57.575Z,33.50
2017-06-22T09:09:26.007Z,33.70
2017-06-22T09:11:54.413Z,33.90
2017-06-22T09:14:22.803Z,34.20
2017-06-22T09:16:51.193Z,34.40
2017-06-22T09:19:19.610Z,34.30
2017-06-22T09:21:48.001Z,34.10
2017-06-22T09:24:16.404Z,34.00
2017-06-22T09:26:44.796Z,34.10
2017-06-22T09:29:13.208Z,34.10
2017-06-22T09:31:42.429Z,34.20
2017-06-22T09:34:10.861Z,34.20
2017-06-22T09:36:39.265Z,34.10
2017-06-22T09:39:07.670Z,33.90
2017-06-22T09:41:36.064Z,34.00
2017-06-22T09:44:04.507Z,34.40
2017-06-22T09:46:32.914Z,34.10
2017-06-22T09:49:01.326Z,34.30
2017-06-22T09:51:29.721Z,34.30
2017-06-22T09:53:58.151Z,34.50
2017-06-22T09:56:26.590Z,34.40
2017-06-22T09:58:55.004Z,34.30
2017-06-22T10:01:23.437Z,34.00
2017-06-22T10:03:52.622Z,34.20
2017-06-22T10:06:21.026Z,34.20
2017-06-22T10:08:49.541Z,34.20
2017-06-22T10:11:18.128Z,34.00
2017-06-22T10:13:46.516Z,34.20
2017-06-22T10:16:14.935Z,34.60
2017-06-22T10:18:43.413Z,34.90
2017-06-22T10:21:11.817Z,34.80
2017-06-22T10:23:40.210Z,34.60
2017-06-22T10:26:08.597Z,34.70
2017-06-22T10:28:37.190Z,34.90
2017-06-22T10:31:05.594Z,34.90
2017-06-22T10:33:34.004Z,34.70
2017-06-22T10:36:03.172Z,34.80
2017-06-22T10:38:31.587Z,34.80
2017-06-22T10:40:59.984Z,34.90
2017-06-22T10:43:28.386Z,35.00
2017-06-22T10:45:56.791Z,34.90
2017-06-22T10:48:25.181Z,34.90
2017-06-22T10:50:53.600Z,34.80
2017-06-22T10:53:21.998Z,34.80
2017-06-22T10:55:50.422Z,34.90
2017-06-22T10:58:18.947Z,34.90
2017-06-22T11:00:47.337Z,34.90
2017-06-22T11:03:15.794Z,35.10
2017-06-22T11:05:44.221Z,35.30
2017-06-22T11:08:12.607Z,35.30
2017-06-22T11:10:41.787Z,35.20
2017-06-22T11:13:10.181Z,35.20
2017-06-22T11:15:38.584Z,35.30
2017-06-22T11:18:06.990Z,35.20
2017-06-22T11:20:35.381Z,35.20
2017-06-22T11:23:03.800Z,35.60
2017-06-22T11:25:32.976Z,35.70
2017-06-22T11:28:01.371Z,35.70
2017-06-22T11:30:29.778Z,36.00
2017-06-22T11:32:58.183Z,35.60
2017-06-22T11:35:26.603Z,35.70
2017-06-22T11:37:55.009Z,35.90
2017-06-22T11:40:23.408Z,36.00
2017-06-22T11:42:51.800Z,36.30
2017-06-22T11:45:20.187Z,36.20
2017-06-22T11:47:48.606Z,36.20
2017-06-22T11:50:17.770Z,36.60
2017-06-22T11:52:46.179Z,36.50
2017-06-22T11:55:15.351Z,35.10
2017-06-22T11:57:43.767Z,35.10
2017-06-22T12:00:12.172Z,35.20
2017-06-22T12:02:40.562Z,35.50
2017-06-22T12:05:08.952Z,35.90
2017-06-22T12:07:37.364Z,36.00
2017-06-22T12:10:06.514Z,36.40
2017-06-22T12:12:34.930Z,36.40
2017-06-22T12:15:03.326Z,36.60
2017-06-22T12:17:31.721Z,36.40
2017-06-22T12:20:00.125Z,35.80
2017-06-22T12:22:28.515Z,36.10
2017-06-22T12:24:56.941Z,36.30
2017-06-22T12:27:25.348Z,36.00
2017-06-22T12:29:53.752Z,36.10
2017-06-22T12:32:22.193Z,35.70
2017-06-22T12:34:50.582Z,35.10
2017-06-22T12:37:19.026Z,34.80
2017-06-22T12:39:47.421Z,34.20
2017-06-22T12:42:15.819Z,34.00
2017-06-22T12:44:44.238Z,33.80
2017-06-22T12:47:12.642Z,33.30
2017-06-22T12:49:41.051Z,33.10
2017-06-22T12:52:09.441Z,32.80
2017-06-22T12:54:37.829Z,32.50
2017-06-22T12:57:06.229Z,32.30
2017-06-22T12:59:34.641Z,32.10
2017-06-22T13:02:03.014Z,32.20
2017-06-22T13:04:31.426Z,32.30
2017-06-22T13:06:59.840Z,32.40
2017-06-22T13:09:28.239Z,32.70
2017-06-22T13:11:57.395Z,32.30
2017-06-22T13:14:25.801Z,32.30
2017-06-22T13:16:54.966Z,31.40
2017-06-22T13:19:23.357Z,31.30
2017-06-22T13:21:51.759Z,31.20
2017-06-22T13:24:20.914Z,31.30
2017-06-22T13:26:49.332Z,31.30
2017-06-22T13:29:18.489Z,31.90
2017-06-22T13:31:46.887Z,31.90
2017-06-22T13:34:15.300Z,32.20
2017-06-22T13:36:43.680Z,32.50
2017-06-22T13:39:12.105Z,32.50
2017-06-22T13:41:40.493Z,32.50
2017-06-22T13:44:08.930Z,32.50
2017-06-22T13:46:37.341Z,32.60
2017-06-22T13:49:05.721Z,32.50
2017-06-22T13:51:34.139Z,32.20
2017-06-22T13:54:02.547Z,32.00
2017-06-22T13:56:30.943Z,32.00
2017-06-22T13:58:59.363Z,32.00
2017-06-22T14:01:28.546Z,32.10
2017-06-22T14:03:56.970Z,32.10
2017-06-22T14:06:25.360Z,32.20
2017-06-22T14:08:53.818Z,32.40
2017-06-22T14:11:22.243Z,32.60
2017-06-22T14:13:50.656Z,32.80
2017-06-22T14:16:19.885Z,32.90
2017-06-22T14:18:48.290Z,32.80
2017-06-22T14:21:16.711Z,33.00
2017-06-22T14:23:45.121Z,33.20
2017-06-22T14:26:13.376Z,33.40
2017-06-22T14:28:42.541Z,33.90
2017-06-22T14:31:10.918Z,33.90
2017-06-22T14:33:39.333Z,34.10
2017-06-22T14:36:07.755Z,34.10
2017-06-22T14:38:36.174Z,34.10
2017-06-22T14:41:04.602Z,34.20
2017-06-22T14:43:33.002Z,34.10
2017-06-22T14:46:01.402Z,34.00
2017-06-22T14:48:29.805Z,34.00
2017-06-22T14:50:58.205Z,34.10
2017-06-22T14:53:26.618Z,34.40
2017-06-22T14:55:55.022Z,34.50
2017-06-22T14:58:23.423Z,34.30
2017-06-22T15:00:51.857Z,34.30
2017-06-22T15:03:20.257Z,34.20
2017-06-22T15:05:48.676Z,34.30
2017-06-22T15:08:17.057Z,34.50
2017-06-22T15:10:45.476Z,34.50
2017-06-22T15:13:13.909Z,34.60
2017-06-22T15:15:42.292Z,34.70
2017-06-22T15:18:10.706Z,34.20
2017-06-22T15:20:39.104Z,33.90
2017-06-22T15:23:07.506Z,33.70
2017-06-22T15:25:35.721Z,33.80
2017-06-22T15:28:04.110Z,33.90
2017-06-22T15:30:32.557Z,33.90
2017-06-22T15:33:00.937Z,33.90
2017-06-22T15:35:29.341Z,33.80
2017-06-22T15:37:57.746Z,33.60
2017-06-22T15:40:26.148Z,33.50
2017-06-22T15:42:54.569Z,33.20
2017-06-22T15:45:22.971Z,33.00
2017-06-22T15:47:51.381Z,32.90
2017-06-22T15:50:19.813Z,32.90
2017-06-22T15:52:48.229Z,32.80
2017-06-22T15:55:16.659Z,32.50
2017-06-22T15:57:45.053Z,32.20
2017-06-22T16:00:13.097Z,32.00
2017-06-22T16:02:41.654Z,32.00
2017-06-22T16:05:10.146Z,32.10
2017-06-22T16:07:38.550Z,32.20
2017-06-22T16:10:06.994Z,32.10
2017-06-22T16:12:35.389Z,32.10
2017-06-22T16:15:03.798Z,32.00
2017-06-22T16:17:32.185Z,32.10
2017-06-22T16:20:00.619Z,32.00
2017-06-22T16:22:29.097Z,32.10
2017-06-22T16:24:57.488Z,32.00
2017-06-22T16:27:25.890Z,31.80
2017-06-22T16:29:54.281Z,31.60
2017-06-22T16:32:23.574Z,31.70
2017-06-22T16:34:51.991Z,31.60
2017-06-22T16:37:20.388Z,31.80
2017-06-22T16:39:48.800Z,31.80
2017-06-22T16:42:17.233Z,31.90
2017-06-22T16:44:45.639Z,31.70
2017-06-22T16:47:14.050Z,31.50
2017-06-22T16:49:43.219Z,31.10
2017-06-22T16:52:11.675Z,31.00
2017-06-22T16:54:40.108Z,31.00
2017-06-22T16:57:08.513Z,31.00
2017-06-22T16:59:37.011Z,31.10
2017-06-22T17:02:05.413Z,31.00
2017-06-22T17:04:33.819Z,30.70
2017-06-22T17:07:02.222Z,30.40
2017-06-22T17:09:31.415Z,30.20
2017-06-22T17:12:00.580Z,30.20
2017-06-22T17:14:28.965Z,30.30
2017-06-22T17:16:57.382Z,30.20
2017-06-22T17:19:25.787Z,30.20
2017-06-22T17:21:54.207Z,30.10
2017-06-22T17:24:22.695Z,29.90
2017-06-22T17:26:51.945Z,29.70
2017-06-22T17:29:20.614Z,29.70
2017-06-22T17:31:49.008Z,29.50
2017-06-22T17:34:17.474Z,29.50
2017-06-22T17:36:45.862Z,29.60
2017-06-22T17:39:14.085Z,29.50
2017-06-22T17:41:43.251Z,29.20
2017-06-22T17:44:11.649Z,29.20
2017-06-22T17:46:40.051Z,29.10
2017-06-22T17:49:08.440Z,28.90
2017-06-22T17:51:36.936Z,28.80
2017-06-22T17:54:05.392Z,28.60
2017-06-22T17:56:33.796Z,28.70
2017-06-22T17:59:02.206Z,28.50
2017-06-22T18:01:30.626Z,28.40
2017-06-22T18:03:59.030Z,28.30
2017-06-22T18:06:27.449Z,28.30
2017-06-22T18:08:55.863Z,28.30
2017-06-22T18:11:24.273Z,28.20
2017-06-22T18:13:52.663Z,27.80
2017-06-22T18:16:21.121Z,27.60
2017-06-22T18:18:49.532Z,27.60
2017-06-22T18:21:18.237Z,27.20
2017-06-22T18:23:46.699Z,27.20
2017-06-22T18:26:14.911Z,27.20
2017-06-22T18:28:43.323Z,27.10
2017-06-22T18:31:11.732Z,26.70
2017-06-22T18:33:40.185Z,26.60
2017-06-22T18:36:08.601Z,26.60
2017-06-22T18:38:37.015Z,26.40
2017-06-22T18:41:05.425Z,26.30
2017-06-22T18:43:33.830Z,26.00
2017-06-22T18:46:02.277Z,25.90
2017-06-22T18:48:30.657Z,25.80
2017-06-22T18:50:59.074Z,25.70
2017-06-22T18:53:27.495Z,25.70
2017-06-22T18:55:55.929Z,25.60
2017-06-22T18:58:24.340Z,25.50
2017-06-22T19:00:53.509Z,25.40
2017-06-22T19:03:21.754Z,25.30
2017-06-22T19:05:50.153Z,25.20
2017-06-22T19:08:18.580Z,25.10
2017-06-22T19:10:48.632Z,25.20
2017-06-22T19:13:16.857Z,25.10
2017-06-22T19:15:46.044Z,24.80
2017-06-22T19:18:14.436Z,24.70
2017-06-22T19:20:43.708Z,24.60
2017-06-22T19:23:12.922Z,24.50
2017-06-22T19:25:41.333Z,24.50
2017-06-22T19:28:09.566Z,24.40
2017-06-22T19:30:38.092Z,24.30
2017-06-22T19:33:06.487Z,24.10
2017-06-22T19:35:34.958Z,24.10
2017-06-22T19:38:03.362Z,24.10
2017-06-22T19:40:31.790Z,23.90
2017-06-22T19:43:00.187Z,23.80
2017-06-22T19:45:28.592Z,23.70
2017-06-22T19:47:56.828Z,23.60
2017-06-22T19:50:25.218Z,23.50
2017-06-22T19:52:53.637Z,23.50
2017-06-22T19:55:22.051Z,23.40
2017-06-22T19:57:50.433Z,23.30
2017-06-22T20:00:19.429Z,23.20
2017-06-22T20:02:47.841Z,23.00
2017-06-22T20:05:16.284Z,22.80
2017-06-22T20:07:44.709Z,22.70
2017-06-22T20:10:13.110Z,22.50
2017-06-22T20:12:41.526Z,22.40
2017-06-22T20:15:09.929Z,22.50
2017-06-22T20:17:38.341Z,22.50
2017-06-22T20:20:06.744Z,22.50
2017-06-22T20:22:35.911Z,22.30
2017-06-22T20:25:04.301Z,22.20
2017-06-22T20:27:33.480Z,22.20
2017-06-22T20:30:01.894Z,22.20
2017-06-22T20:32:30.130Z,22.00
2017-06-22T20:34:58.536Z,21.90
2017-06-22T20:37:26.925Z,21.90
2017-06-22T20:39:55.313Z,21.80
2017-06-22T20:42:23.748Z,21.70
2017-06-22T20:44:52.159Z,21.60
2017-06-22T20:47:20.556Z,21.60
2017-06-22T20:49:48.976Z,21.50
2017-06-22T20:52:17.380Z,21.40
2017-06-22T20:54:46.562Z,21.20
2017-06-22T20:57:14.950Z,21.20
2017-06-22T20:59:43.380Z,21.20
2017-06-22T21:02:11.819Z,21.00
2017-06-22T21:04:40.212Z,21.00
2017-06-22T21:07:08.642Z,21.10
2017-06-22T21:09:37.031Z,21.00
2017-06-22T21:12:05.420Z,20.90
2017-06-22T21:14:34.594Z,20.90
2017-06-22T21:17:02.973Z,20.90
2017-06-22T21:19:31.401Z,20.80
2017-06-22T21:21:59.804Z,20.80
2017-06-22T21:24:28.215Z,20.70
2017-06-22T21:26:56.627Z,20.70
2017-06-22T21:29:25.135Z,20.60
2017-06-22T21:31:53.607Z,20.60
2017-06-22T21:34:22.095Z,20.50
2017-06-22T21:36:50.470Z,20.60
2017-06-22T21:39:18.877Z,20.60
2017-06-22T21:41:47.261Z,20.50
2017-06-22T21:44:15.668Z,20.60
2017-06-22T21:46:44.905Z,20.60
2017-06-22T21:49:13.299Z,20.60
2017-06-22T21:51:41.699Z,20.70
2017-06-22T21:54:10.092Z,20.60
2017-06-22T21:56:38.521Z,20.60
2017-06-22T21:59:06.955Z,20.60
2017-06-22T22:01:35.368Z,20.60
2017-06-22T22:04:03.772Z,20.50
2017-06-22T22:06:32.160Z,20.50
2017-06-22T22:09:00.577Z,20.50
2017-06-22T22:11:28.951Z,20.50
2017-06-22T22:13:57.469Z,20.40
2017-06-22T22:16:25.891Z,20.40
2017-06-22T22:18:54.285Z,20.30
2017-06-22T22:21:23.479Z,20.30
2017-06-22T22:23:52.647Z,20.30
2017-06-22T22:26:21.101Z,20.30
2017-06-22T22:28:49.539Z,20.30
2017-06-22T22:31:17.953Z,20.30
2017-06-22T22:33:46.357Z,20.40
2017-06-22T22:36:14.747Z,20.30
2017-06-22T22:38:43.135Z,20.30
2017-06-22T22:41:11.573Z,20.30
2017-06-22T22:43:40.049Z,20.30
2017-06-22T22:46:08.453Z,20.30
2017-06-22T22:48:36.826Z,20.20
2017-06-22T22:51:05.216Z,20.10
2017-06-22T22:53:33.629Z,20.10
2017-06-22T22:56:02.009Z,20.10
2017-06-22T22:58:30.460Z,20.00
2017-06-22T23:00:58.844Z,20.00
2017-06-22T23:03:27.239Z,20.00
2017-06-22T23:05:55.634Z,19.90
2017-06-22T23:08:24.008Z,19.90
2017-06-22T23:10:52.427Z,19.90
2017-06-22T23:13:20.817Z,19.90
2017-06-22T23:15:49.208Z,19.80
2017-06-22T23:18:17.609Z,19.80
2017-06-22T23:20:45.998Z,19.80
2017-06-22T23:23:14.405Z,19.90
2017-06-22T23:25:42.796Z,19.90
2017-06-22T23:28:11.182Z,19.80
2017-06-22T23:30:39.581Z,19.70
2017-06-22T23:33:08.741Z,19.70
2017-06-22T23:35:36.818Z,19.70
2017-06-22T23:38:05.223Z,19.70
2017-06-22T23:40:33.595Z,19.60
2017-06-22T23:43:01.985Z,19.70
2017-06-22T23:45:31.137Z,19.50
2017-06-22T23:47:59.538Z,19.50
2017-06-22T23:50:27.916Z,19.50
2017-06-22T23:52:56.297Z,19.50
2017-06-22T23:55:24.698Z,19.30
2017-06-22T23:57:53.853Z,19.40
